createdAt,value
2023-03-11T00:00:14.438Z,72.90
2023-03-11T00:02:41.128Z,72.80
2023-03-11T00:05:08.912Z,72.90
2023-03-11T00:07:37.591Z,72.90
2023-03-11T00:10:05.754Z,72.90
2023-03-11T00:12:32.568Z,72.90
2023-03-11T00:14:59.242Z,72.90
2023-03-11T00:17:25.930Z,72.90
2023-03-11T00:19:52.528Z,72.90
2023-03-11T00:22:19.149Z,72.90
2023-03-11T00:24:45.768Z,72.80
2023-03-11T00:27:12.381Z,72.80
2023-03-11T00:29:39.029Z,72.80
2023-03-11T00:32:05.913Z,72.90
2023-03-11T00:34:32.642Z,72.80
2023-03-11T00:36:59.279Z,72.90
2023-03-11T00:39:25.997Z,72.90
2023-03-11T00:41:53.685Z,72.90
2023-03-11T00:44:20.337Z,72.90
2023-03-11T00:46:46.980Z,72.80
2023-03-11T00:49:13.712Z,72.90
2023-03-11T00:51:40.279Z,72.80
2023-03-11T00:54:06.904Z,72.90
2023-03-11T00:56:33.746Z,72.90
2023-03-11T00:59:00.470Z,72.80
2023-03-11T01:01:27.212Z,72.90
2023-03-11T01:03:54.057Z,72.80
2023-03-11T01:06:20.842Z,72.80
2023-03-11T01:08:47.482Z,72.80
2023-03-11T01:11:14.274Z,72.80
2023-03-11T01:13:41.323Z,72.80
2023-03-11T01:16:09.312Z,72.80
2023-03-11T01:18:36.132Z,72.80
2023-03-11T01:21:02.952Z,72.80
2023-03-11T01:23:30.181Z,72.80
2023-03-11T01:25:56.887Z,72.80
2023-03-11T01:28:23.827Z,72.70
2023-03-11T01:30:50.699Z,72.70
2023-03-11T01:33:19.689Z,72.70
2023-03-11T01:35:46.857Z,72.80
2023-03-11T01:38:13.640Z,72.80
2023-03-11T01:40:45.793Z,72.70
2023-03-11T01:43:39.898Z,72.70
2023-03-11T01:46:47.264Z,72.70
2023-03-11T01:49:14.085Z,72.70
2023-03-11T01:51:44.094Z,72.70
2023-03-11T01:54:15.475Z,72.70
2023-03-11T01:56:42.664Z,72.80
2023-03-11T01:59:16.520Z,72.80
2023-03-11T02:02:09.789Z,72.70
2023-03-11T02:04:37.954Z,72.70
2023-03-11T02:07:07.044Z,72.70
2023-03-11T02:09:34.135Z,72.70
2023-03-11T02:12:01.849Z,72.70
2023-03-11T02:14:31.566Z,72.70
2023-03-11T02:17:00.253Z,72.70
2023-03-11T02:20:07.401Z,72.70
2023-03-11T02:22:35.068Z,72.70
2023-03-11T02:25:32.768Z,72.70
2023-03-11T02:28:00.955Z,72.70
2023-03-11T02:30:28.337Z,72.70
2023-03-11T02:32:56.000Z,72.70
2023-03-11T02:35:22.974Z,72.70
2023-03-11T02:37:52.384Z,72.70
2023-03-11T02:40:22.230Z,72.70
2023-03-11T02:42:51.565Z,72.70
2023-03-11T02:45:20.468Z,72.70
2023-03-11T02:47:47.466Z,72.70
2023-03-11T02:50:18.265Z,72.70
2023-03-11T02:52:45.139Z,72.60
2023-03-11T02:55:12.082Z,72.60
2023-03-11T02:57:39.152Z,72.60
2023-03-11T03:00:16.236Z,72.60
2023-03-11T03:02:44.769Z,72.60
2023-03-11T03:05:12.082Z,72.60
2023-03-11T03:07:39.224Z,72.60
2023-03-11T03:10:07.230Z,72.60
2023-03-11T03:12:34.125Z,72.60
2023-03-11T03:15:01.003Z,72.60
2023-03-11T03:17:27.634Z,72.60
2023-03-11T03:19:54.320Z,72.60
2023-03-11T03:22:21.009Z,72.60
2023-03-11T03:24:47.799Z,72.60
2023-03-11T03:27:14.472Z,72.60
2023-03-11T03:29:41.067Z,72.50
2023-03-11T03:32:07.908Z,72.50
2023-03-11T03:34:34.804Z,72.50
2023-03-11T03:37:01.480Z,72.50
2023-03-11T03:39:30.497Z,72.50
2023-03-11T03:41:57.368Z,72.50
2023-03-11T03:44:24.006Z,72.50
2023-03-11T03:46:50.784Z,72.50
2023-03-11T03:49:17.484Z,72.50
2023-03-11T03:51:44.124Z,72.40
2023-03-11T03:54:10.777Z,72.40
2023-03-11T03:56:37.487Z,72.40
2023-03-11T03:59:04.164Z,72.40
2023-03-11T04:01:30.761Z,72.40
2023-03-11T04:03:57.373Z,72.40
2023-03-11T04:06:26.542Z,72.40
2023-03-11T04:08:54.352Z,72.40
2023-03-11T04:11:21.538Z,72.40
2023-03-11T04:13:48.435Z,72.40
2023-03-11T04:16:19.198Z,72.40
2023-03-11T04:18:46.203Z,72.30
2023-03-11T04:21:12.925Z,72.40
2023-03-11T04:23:39.532Z,72.40
2023-03-11T04:26:06.245Z,72.30
2023-03-11T04:28:33.475Z,72.40
2023-03-11T04:31:00.140Z,72.40
2023-03-11T04:33:26.832Z,72.40
2023-03-11T04:35:53.535Z,72.30
2023-03-11T04:38:20.254Z,72.30
2023-03-11T04:40:46.931Z,72.30
2023-03-11T04:43:13.652Z,72.30
2023-03-11T04:45:40.801Z,72.30
2023-03-11T04:48:08.091Z,72.30
2023-03-11T04:50:34.773Z,72.30
2023-03-11T04:53:01.667Z,72.40
2023-03-11T04:55:28.356Z,72.40
2023-03-11T04:57:55.015Z,72.30
2023-03-11T05:00:24.784Z,72.30
2023-03-11T05:02:51.997Z,72.30
2023-03-11T05:05:19.924Z,72.30
2023-03-11T05:07:46.762Z,72.30
2023-03-11T05:10:14.082Z,72.30
2023-03-11T05:12:40.832Z,72.30
2023-03-11T05:15:07.912Z,72.30
2023-03-11T05:17:34.561Z,72.30
2023-03-11T05:20:01.267Z,72.30
2023-03-11T05:22:27.948Z,72.30
2023-03-11T05:24:54.636Z,72.30
2023-03-11T05:27:21.407Z,72.30
2023-03-11T05:29:48.044Z,72.30
2023-03-11T05:32:14.773Z,72.30
2023-03-11T05:34:41.699Z,72.30
2023-03-11T05:37:08.940Z,72.30
2023-03-11T05:39:37.641Z,72.30
2023-03-11T05:42:05.122Z,72.30
2023-03-11T05:44:32.829Z,72.30
2023-03-11T05:46:59.755Z,72.40
2023-03-11T05:49:26.948Z,72.30
2023-03-11T05:51:58.649Z,72.30
2023-03-11T05:54:25.573Z,72.30
2023-03-11T05:56:52.318Z,72.30
2023-03-11T05:59:19.037Z,72.30
2023-03-11T06:01:45.852Z,72.30
2023-03-11T06:04:13.075Z,72.30
2023-03-11T06:06:43.492Z,72.30
2023-03-11T06:09:14.476Z,72.20
2023-03-11T06:11:41.906Z,72.30
2023-03-11T06:14:12.770Z,72.20
2023-03-11T06:16:40.568Z,72.20
2023-03-11T06:19:07.565Z,72.30
2023-03-11T06:21:34.241Z,72.30
2023-03-11T06:24:00.922Z,72.30
2023-03-11T06:26:27.575Z,72.40
2023-03-11T06:28:54.317Z,72.50
2023-03-11T06:31:25.178Z,72.40
2023-03-11T06:33:52.812Z,72.40
2023-03-11T06:36:20.351Z,72.30
2023-03-11T06:38:48.439Z,72.30
2023-03-11T06:41:15.143Z,72.30
2023-03-11T06:43:42.165Z,72.40
2023-03-11T06:46:11.619Z,72.50
2023-03-11T06:48:38.336Z,72.40
2023-03-11T06:51:05.411Z,72.50
2023-03-11T06:53:32.363Z,72.50
2023-03-11T06:56:03.131Z,72.60
2023-03-11T06:58:30.253Z,72.60
2023-03-11T07:01:20.923Z,72.70
2023-03-11T07:03:49.063Z,72.70
2023-03-11T07:06:20.318Z,72.70
2023-03-11T07:08:48.669Z,72.70
2023-03-11T07:11:19.086Z,72.80
2023-03-11T07:13:46.029Z,72.80
2023-03-11T07:16:24.812Z,72.80
2023-03-11T07:18:53.078Z,72.80
2023-03-11T07:21:21.678Z,72.90
2023-03-11T07:23:52.527Z,72.90
2023-03-11T07:26:19.453Z,72.90
2023-03-11T07:28:46.449Z,72.90
2023-03-11T07:31:16.628Z,73.00
2023-03-11T07:33:43.790Z,72.90
2023-03-11T07:36:13.915Z,73.00
2023-03-11T07:38:41.899Z,72.90
2023-03-11T07:41:11.033Z,72.90
2023-03-11T07:43:38.253Z,72.90
2023-03-11T07:46:12.051Z,72.90
2023-03-11T07:48:40.341Z,72.90
2023-03-11T07:51:12.856Z,72.90
2023-03-11T07:53:40.682Z,72.90
2023-03-11T07:56:09.234Z,72.90
2023-03-11T07:58:36.380Z,72.90
2023-03-11T08:01:11.776Z,73.00
2023-03-11T08:03:38.833Z,73.00
2023-03-11T08:06:20.980Z,73.00
2023-03-11T08:08:48.842Z,73.10
2023-03-11T08:11:16.487Z,73.10
2023-03-11T08:13:44.448Z,73.10
2023-03-11T08:16:13.847Z,73.20
2023-03-11T08:18:41.010Z,73.20
2023-03-11T08:21:13.976Z,73.30
2023-03-11T08:23:41.276Z,73.40
2023-03-11T08:26:12.370Z,73.40
2023-03-11T08:28:39.087Z,73.50
2023-03-11T08:31:24.239Z,73.60
2023-03-11T08:33:54.668Z,73.60
2023-03-11T08:36:21.582Z,73.60
2023-03-11T08:38:48.474Z,73.60
2023-03-11T08:41:15.432Z,73.60
2023-03-11T08:43:42.920Z,73.60
2023-03-11T08:46:23.841Z,73.60
2023-03-11T08:48:50.709Z,73.60
2023-03-11T08:51:17.457Z,73.60
2023-03-11T08:53:44.392Z,73.60
2023-03-11T08:56:11.241Z,73.60
2023-03-11T08:58:37.987Z,73.60
2023-03-11T09:01:06.333Z,73.60
2023-03-11T09:03:35.245Z,73.50
2023-03-11T09:06:04.183Z,73.60
2023-03-11T09:08:31.702Z,73.60
2023-03-11T09:10:58.436Z,73.60
2023-03-11T09:13:25.383Z,73.60
2023-03-11T09:15:52.664Z,73.60
2023-03-11T09:18:19.978Z,73.60
2023-03-11T09:20:47.106Z,73.60
2023-03-11T09:23:15.893Z,73.50
2023-03-11T09:25:42.935Z,73.60
2023-03-11T09:28:09.572Z,73.60
2023-03-11T09:30:36.606Z,73.80
2023-03-11T09:33:03.316Z,74.00
2023-03-11T09:35:30.096Z,74.00
2023-03-11T09:37:56.796Z,74.20
2023-03-11T09:40:26.214Z,74.40
2023-03-11T09:43:00.845Z,74.40
2023-03-11T09:45:34.384Z,74.50
2023-03-11T09:48:29.228Z,74.60
2023-03-11T09:51:17.915Z,74.60
2023-03-11T09:53:46.191Z,74.70
2023-03-11T09:56:20.175Z,74.70
2023-03-11T09:58:47.175Z,74.70
2023-03-11T10:01:30.852Z,74.80
2023-03-11T10:04:20.129Z,74.70
2023-03-11T10:06:47.901Z,74.70
2023-03-11T10:09:39.663Z,74.70
2023-03-11T10:12:09.650Z,74.70
2023-03-11T10:14:47.970Z,74.70
2023-03-11T10:17:40.623Z,74.80
2023-03-11T10:20:29.774Z,74.90
2023-03-11T10:23:09.186Z,74.90
2023-03-11T10:26:02.314Z,74.90
2023-03-11T10:28:38.294Z,74.90
2023-03-11T10:31:26.918Z,75.00
2023-03-11T10:34:22.744Z,75.00
2023-03-11T10:36:59.645Z,75.00
2023-03-11T10:39:27.516Z,75.00
2023-03-11T10:41:57.239Z,75.10
2023-03-11T10:44:34.628Z,75.10
2023-03-11T10:47:02.143Z,75.00
2023-03-11T10:49:29.381Z,75.20
2023-03-11T10:51:57.110Z,75.20
2023-03-11T10:54:37.625Z,75.20
2023-03-11T10:57:19.609Z,75.00
2023-03-11T10:59:50.492Z,75.00
2023-03-11T11:02:49.351Z,75.10
2023-03-11T11:05:18.911Z,75.10
2023-03-11T11:07:47.541Z,75.20
2023-03-11T11:10:20.339Z,75.30
2023-03-11T11:12:57.706Z,75.30
2023-03-11T11:15:27.968Z,75.10
2023-03-11T11:17:57.825Z,75.20
2023-03-11T11:20:25.584Z,75.20
2023-03-11T11:23:03.870Z,75.20
2023-03-11T11:25:40.969Z,75.20
2023-03-11T11:28:19.338Z,75.00
2023-03-11T11:30:58.377Z,75.00
2023-03-11T11:33:31.461Z,74.90
2023-03-11T11:36:04.302Z,75.00
2023-03-11T11:38:32.454Z,75.00
2023-03-11T11:41:03.405Z,75.20
2023-03-11T11:43:43.970Z,75.20
2023-03-11T11:46:28.179Z,75.50
2023-03-11T11:49:19.051Z,75.50
2023-03-11T11:52:04.197Z,75.80
2023-03-11T11:54:39.137Z,75.80
2023-03-11T11:57:13.484Z,76.10
2023-03-11T11:59:40.608Z,75.70
2023-03-11T12:02:34.645Z,76.00
2023-03-11T12:05:32.620Z,75.50
2023-03-11T12:08:20.616Z,75.50
2023-03-11T12:11:18.874Z,75.40
2023-03-11T12:13:53.602Z,75.20
2023-03-11T12:16:20.188Z,75.30
2023-03-11T12:18:56.241Z,75.80
2023-03-11T12:21:58.920Z,75.50
2023-03-11T12:24:47.394Z,75.20
2023-03-11T12:27:22.752Z,75.60
2023-03-11T12:29:55.370Z,75.00
2023-03-11T12:32:46.938Z,74.80
2023-03-11T12:35:35.411Z,74.30
2023-03-11T12:38:13.342Z,75.20
2023-03-11T12:40:43.256Z,75.30
2023-03-11T12:43:48.046Z,75.50
2023-03-11T12:46:19.501Z,75.20
2023-03-11T12:48:47.238Z,74.00
2023-03-11T12:51:41.166Z,74.20
2023-03-11T12:54:34.270Z,73.30
2023-03-11T12:57:17.103Z,71.40
2023-03-11T13:00:03.607Z,71.40
2023-03-11T13:03:01.274Z,70.70
2023-03-11T13:06:05.408Z,70.70
2023-03-11T13:08:55.568Z,71.00
2023-03-11T13:11:34.174Z,70.00
2023-03-11T13:14:09.410Z,69.80
2023-03-11T13:16:37.575Z,70.30
2023-03-11T13:19:26.402Z,70.40
2023-03-11T13:21:54.504Z,69.70
2023-03-11T13:24:21.935Z,69.80
2023-03-11T13:26:48.513Z,70.20
2023-03-11T13:29:37.019Z,69.70
2023-03-11T13:32:26.182Z,69.20
2023-03-11T13:34:55.528Z,66.10
2023-03-11T13:37:46.908Z,66.90
2023-03-11T13:40:23.213Z,66.80
2023-03-11T13:42:52.732Z,68.50
2023-03-11T13:45:29.845Z,70.10
2023-03-11T13:48:01.317Z,68.90
2023-03-11T13:50:36.861Z,68.70
2023-03-11T13:53:09.520Z,68.80
2023-03-11T13:55:43.711Z,69.30
2023-03-11T13:58:23.497Z,69.30
2023-03-11T14:00:59.655Z,70.10
2023-03-11T14:03:31.142Z,68.70
2023-03-11T14:06:09.037Z,68.70
2023-03-11T14:08:37.818Z,68.20
2023-03-11T14:11:13.250Z,68.70
2023-03-11T14:13:51.172Z,67.50
2023-03-11T14:16:33.580Z,66.30
2023-03-11T14:19:17.749Z,66.60
2023-03-11T14:21:53.179Z,67.60
2023-03-11T14:24:24.365Z,67.40
2023-03-11T14:26:56.082Z,66.60
2023-03-11T14:29:34.065Z,65.50
2023-03-11T14:32:14.879Z,65.10
2023-03-11T14:34:41.540Z,67.00
2023-03-11T14:37:35.091Z,67.10
2023-03-11T14:40:03.276Z,67.10
2023-03-11T14:42:39.882Z,68.30
2023-03-11T14:45:15.315Z,68.50
2023-03-11T14:48:01.226Z,68.40
2023-03-11T14:50:30.595Z,67.30
2023-03-11T14:53:06.923Z,68.00
2023-03-11T14:55:40.283Z,67.40
2023-03-11T14:58:30.815Z,67.90
2023-03-11T15:01:00.703Z,67.70
2023-03-11T15:03:33.691Z,68.10
2023-03-11T15:06:16.150Z,68.40
2023-03-11T15:08:47.025Z,67.60
2023-03-11T15:11:13.612Z,67.70
2023-03-11T15:13:42.214Z,67.80
2023-03-11T15:16:22.112Z,67.70
2023-03-11T15:18:48.985Z,67.30
2023-03-11T15:21:21.370Z,68.70
2023-03-11T15:23:49.636Z,67.00
2023-03-11T15:26:22.621Z,67.60
2023-03-11T15:29:16.517Z,66.40
2023-03-11T15:31:46.524Z,67.00
2023-03-11T15:34:19.084Z,66.70
2023-03-11T15:37:06.823Z,66.00
2023-03-11T15:39:33.748Z,65.70
2023-03-11T15:42:17.370Z,66.40
2023-03-11T15:44:59.295Z,65.50
2023-03-11T15:47:26.022Z,65.80
2023-03-11T15:49:52.661Z,66.70
2023-03-11T15:52:19.817Z,66.60
2023-03-11T15:54:55.121Z,66.50
2023-03-11T15:57:28.262Z,66.50
2023-03-11T15:59:58.305Z,65.20
2023-03-11T16:02:28.340Z,65.40
2023-03-11T16:04:56.587Z,65.50
2023-03-11T16:07:36.814Z,65.50
2023-03-11T16:10:07.161Z,64.70
2023-03-11T16:12:34.117Z,62.30
2023-03-11T16:15:00.752Z,61.30
2023-03-11T16:17:34.055Z,61.00
2023-03-11T16:20:06.843Z,60.80
2023-03-11T16:22:36.973Z,61.90
2023-03-11T16:25:04.347Z,62.60
2023-03-11T16:27:31.000Z,63.90
2023-03-11T16:29:57.647Z,64.30
2023-03-11T16:32:24.397Z,64.70
2023-03-11T16:34:51.277Z,65.20
2023-03-11T16:37:20.738Z,65.70
2023-03-11T16:40:01.010Z,65.60
2023-03-11T16:42:27.616Z,65.40
2023-03-11T16:44:54.330Z,65.50
2023-03-11T16:47:21.434Z,65.20
2023-03-11T16:49:50.408Z,65.10
2023-03-11T16:52:20.805Z,65.00
2023-03-11T16:54:47.815Z,64.80
2023-03-11T16:57:14.589Z,64.60
2023-03-11T16:59:41.452Z,64.70
2023-03-11T17:02:10.928Z,64.80
2023-03-11T17:04:38.484Z,64.80
2023-03-11T17:07:06.964Z,64.80
2023-03-11T17:09:35.255Z,65.10
2023-03-11T17:12:03.221Z,65.10
2023-03-11T17:14:30.390Z,65.20
2023-03-11T17:16:57.038Z,65.30
2023-03-11T17:19:24.493Z,65.50
2023-03-11T17:21:51.792Z,65.30
2023-03-11T17:24:18.458Z,65.40
2023-03-11T17:26:45.131Z,65.20
2023-03-11T17:29:11.823Z,65.10
2023-03-11T17:31:38.578Z,65.00
2023-03-11T17:34:05.264Z,65.20
2023-03-11T17:36:31.963Z,65.20
2023-03-11T17:38:58.611Z,65.20
2023-03-11T17:41:25.244Z,65.30
2023-03-11T17:43:51.942Z,65.30
2023-03-11T17:46:20.326Z,65.20
2023-03-11T17:48:48.724Z,65.10
2023-03-11T17:51:18.445Z,65.10
2023-03-11T17:53:46.339Z,65.10
2023-03-11T17:56:15.858Z,65.00
2023-03-11T17:58:42.611Z,65.00
2023-03-11T18:01:16.023Z,65.00
2023-03-11T18:03:42.879Z,65.00
2023-03-11T18:06:10.199Z,65.00
2023-03-11T18:08:37.664Z,65.00
2023-03-11T18:11:06.763Z,65.10
2023-03-11T18:13:34.720Z,65.20
2023-03-11T18:16:04.131Z,65.20
2023-03-11T18:18:32.012Z,65.30
2023-03-11T18:21:12.718Z,65.40
2023-03-11T18:23:40.100Z,65.20
2023-03-11T18:26:08.860Z,65.30
2023-03-11T18:28:36.029Z,65.40
2023-03-11T18:31:17.832Z,65.50
2023-03-11T18:33:53.995Z,65.50
2023-03-11T18:36:31.112Z,65.50
2023-03-11T18:38:59.706Z,65.60
2023-03-11T18:41:28.128Z,65.70
2023-03-11T18:43:57.422Z,65.70
2023-03-11T18:46:26.178Z,65.70
2023-03-11T18:48:53.931Z,65.80
2023-03-11T18:51:20.658Z,65.80
2023-03-11T18:53:47.345Z,65.90
2023-03-11T18:56:15.455Z,66.00
2023-03-11T18:58:42.558Z,66.00
2023-03-11T19:01:17.585Z,66.10
2023-03-11T19:03:48.521Z,66.10
2023-03-11T19:06:16.528Z,66.10
2023-03-11T19:08:43.730Z,66.20
2023-03-11T19:11:16.051Z,66.20
2023-03-11T19:13:47.484Z,66.20
2023-03-11T19:16:17.249Z,66.20
2023-03-11T19:18:44.509Z,66.30
2023-03-11T19:21:12.705Z,66.30
2023-03-11T19:23:40.068Z,66.30
2023-03-11T19:26:06.970Z,66.30
2023-03-11T19:28:34.632Z,66.40
2023-03-11T19:31:01.676Z,66.30
2023-03-11T19:33:28.620Z,66.40
2023-03-11T19:36:00.323Z,66.50
2023-03-11T19:38:28.125Z,66.40
2023-03-11T19:41:11.770Z,66.50
2023-03-11T19:43:38.398Z,66.40
2023-03-11T19:46:06.328Z,66.50
2023-03-11T19:48:33.401Z,66.50
2023-03-11T19:51:02.193Z,66.60
2023-03-11T19:53:29.006Z,66.60
2023-03-11T19:55:56.671Z,66.60
2023-03-11T19:58:26.286Z,66.70
2023-03-11T20:00:54.226Z,66.70
2023-03-11T20:03:21.935Z,66.70
2023-03-11T20:05:50.597Z,66.70
2023-03-11T20:08:20.185Z,66.70
2023-03-11T20:10:49.101Z,66.70
2023-03-11T20:13:17.858Z,66.70
2023-03-11T20:15:44.614Z,66.80
2023-03-11T20:18:11.451Z,66.80
2023-03-11T20:20:39.409Z,66.80
2023-03-11T20:23:06.255Z,66.90
2023-03-11T20:25:33.195Z,66.90
2023-03-11T20:28:00.690Z,66.90
2023-03-11T20:30:28.139Z,66.80
2023-03-11T20:32:54.857Z,66.90
2023-03-11T20:35:22.343Z,66.90
2023-03-11T20:37:49.152Z,66.90
2023-03-11T20:40:18.181Z,67.00
2023-03-11T20:42:47.093Z,67.00
2023-03-11T20:45:16.228Z,66.90
2023-03-11T20:47:44.297Z,67.00
2023-03-11T20:50:14.432Z,67.00
2023-03-11T20:52:41.218Z,67.00
2023-03-11T20:55:12.553Z,67.10
2023-03-11T20:57:40.146Z,67.10
2023-03-11T21:00:11.415Z,67.10
2023-03-11T21:02:40.185Z,67.10
2023-03-11T21:05:08.743Z,67.20
2023-03-11T21:07:35.992Z,67.20
2023-03-11T21:10:05.332Z,67.20
2023-03-11T21:12:32.288Z,67.20
2023-03-11T21:14:59.032Z,67.30
2023-03-11T21:17:25.974Z,67.30
2023-03-11T21:19:52.633Z,67.30
2023-03-11T21:22:19.390Z,67.30
2023-03-11T21:24:46.302Z,67.40
2023-03-11T21:27:13.001Z,67.40
2023-03-11T21:29:39.599Z,67.40
2023-03-11T21:32:06.396Z,67.40
2023-03-11T21:34:33.561Z,67.40
2023-03-11T21:37:00.531Z,67.50
2023-03-11T21:39:27.254Z,67.50
2023-03-11T21:41:56.430Z,67.50
2023-03-11T21:44:23.313Z,67.50
2023-03-11T21:46:50.220Z,67.50
2023-03-11T21:49:17.195Z,67.50
2023-03-11T21:51:43.924Z,67.60
2023-03-11T21:54:12.409Z,67.50
2023-03-11T21:56:39.761Z,67.50
2023-03-11T21:59:06.631Z,67.50
2023-03-11T22:01:34.405Z,67.60
2023-03-11T22:04:01.964Z,67.60
2023-03-11T22:06:30.897Z,67.60
2023-03-11T22:08:57.673Z,67.60
2023-03-11T22:11:24.458Z,67.60
2023-03-11T22:13:54.005Z,67.60
2023-03-11T22:16:22.289Z,67.60
2023-03-11T22:18:49.451Z,67.60
2023-03-11T22:21:16.871Z,67.60
2023-03-11T22:23:44.880Z,67.60
2023-03-11T22:26:11.965Z,67.60
2023-03-11T22:28:38.741Z,67.70
2023-03-11T22:31:07.270Z,67.60
2023-03-11T22:33:35.161Z,67.70
2023-03-11T22:36:04.728Z,67.70
2023-03-11T22:38:32.578Z,67.70
2023-03-11T22:41:02.672Z,67.70
2023-03-11T22:43:29.349Z,67.70
2023-03-11T22:45:56.028Z,67.60
2023-03-11T22:48:22.782Z,67.60
2023-03-11T22:50:49.439Z,67.60
2023-03-11T22:53:16.152Z,67.60
2023-03-11T22:55:44.243Z,67.60
2023-03-11T22:58:12.080Z,67.60
2023-03-11T23:00:39.369Z,67.60
2023-03-11T23:03:06.543Z,67.70
2023-03-11T23:05:40.725Z,67.60
2023-03-11T23:08:12.137Z,67.70
2023-03-11T23:10:46.716Z,67.60
2023-03-11T23:13:13.913Z,67.60
2023-03-11T23:15:42.502Z,67.70
2023-03-11T23:18:09.646Z,67.70
2023-03-11T23:20:38.118Z,67.70
2023-03-11T23:23:05.798Z,67.70
2023-03-11T23:25:33.601Z,67.70
2023-03-11T23:28:02.451Z,67.70
2023-03-11T23:30:29.874Z,67.70
2023-03-11T23:32:57.774Z,67.70
2023-03-11T23:35:24.644Z,67.70
2023-03-11T23:37:51.763Z,67.70
2023-03-11T23:40:18.832Z,67.70
2023-03-11T23:42:45.610Z,67.70
2023-03-11T23:45:12.220Z,67.70
2023-03-11T23:47:38.927Z,67.70
2023-03-11T23:50:06.530Z,67.70
2023-03-11T23:52:34.006Z,67.70
2023-03-11T23:55:00.820Z,67.80
2023-03-11T23:57:27.465Z,67.70
2023-03-11T23:59:54.066Z,67.80
